Kaibab, Arizona
Current Conditions -  °F | °C
As of 11:15 AM on Thursday 30 Oct 2014 (Local Time) from KAZC Reporting Station
Clear Clear  
Wind Chill: 74°   Ceiling: Unl
Heat Index: 74°   Visibility: 10mi
Dew Point: 25°   Wind: 7mph
Humidity: 16%   Direction: 150°SSE
Pressure: 30.28"   Gusts: NA
Location:  36.9484°N, 112.529°W
Report Text: KAZC 301815Z AUTO 15006KT 10SM CLR 24/M04 A3028 RMK AO2 T02351041
Loading
Personal Weather Stations






























Interactive Weather Map
Tropical Storm Tracking
New forecast layout! Learn more

10-Day Weather Forecast

Advertisements
Track Severe Weather on mobile